Park Hills, Iowa
Current Conditions -  °F | °C
As of 3:15 PM on Saturday 22 Nov 2014 (Local Time) from KPEA Reporting Station
Haze Haze  
Wind Chill: 52°   Ceiling: 800
Heat Index: 52°   Visibility: 5mi
Dew Point: 50°   Wind: 8mph
Humidity: 92%   Direction: 220°SW
Pressure: 29.77"   Gusts: NA
Location:  41.4592°N, 93.0401°W
Report Text: KPEA 222115Z AUTO 22007KT 5SM BR OVC008 11/10 A2977 RMK AO2 T01130100
Loading
Personal Weather Stations






























Interactive Weather Map New forecast layout! Learn more

10-Day Weather Forecast

Advertisements
Track Severe Weather on mobile